createdAt,value
2022-10-04T00:01:51.594Z,56.53
2022-10-04T00:04:43.405Z,56.39
2022-10-04T00:07:13.789Z,59.69
2022-10-04T00:09:50.356Z,57.96
2022-10-04T00:12:21.110Z,60.64
2022-10-04T00:14:49.917Z,59.98
2022-10-04T00:17:24.068Z,61.57
2022-10-04T00:19:52.710Z,62.58
2022-10-04T00:22:25.057Z,60.74
2022-10-04T00:25:07.776Z,61.41
2022-10-04T00:27:36.753Z,61.77
2022-10-04T00:30:04.408Z,60.58
2022-10-04T00:32:42.268Z,59.88
2022-10-04T00:35:24.994Z,61.02
2022-10-04T00:38:26.316Z,61.20
2022-10-04T00:40:57.237Z,60.07
2022-10-04T00:43:29.615Z,59.64
2022-10-04T00:46:01.316Z,58.72
2022-10-04T00:48:50.439Z,59.01
2022-10-04T00:51:53.874Z,59.10
2022-10-04T00:54:31.439Z,58.82
2022-10-04T00:57:04.244Z,60.48
2022-10-04T00:59:36.041Z,59.73
2022-10-04T01:02:06.535Z,58.13
2022-10-04T01:04:41.527Z,58.71
2022-10-04T01:07:10.525Z,58.04
2022-10-04T01:09:46.105Z,59.27
2022-10-04T01:12:22.756Z,57.34
2022-10-04T01:15:05.147Z,57.02
2022-10-04T01:17:32.932Z,57.83
2022-10-04T01:20:00.475Z,57.34
2022-10-04T01:22:49.241Z,59.21
2022-10-04T01:25:49.095Z,60.41
2022-10-04T01:28:17.064Z,59.99
2022-10-04T01:30:45.028Z,59.84
2022-10-04T01:33:13.166Z,62.38
2022-10-04T01:35:40.746Z,60.70
2022-10-04T01:38:08.572Z,58.59
2022-10-04T01:40:43.999Z,60.60
2022-10-04T01:43:14.748Z,60.45
2022-10-04T01:45:51.681Z,60.64
2022-10-04T01:48:22.726Z,60.61
2022-10-04T01:51:05.754Z,60.38
2022-10-04T01:53:45.016Z,59.11
2022-10-04T01:56:15.103Z,59.77
2022-10-04T01:58:45.608Z,58.21
2022-10-04T02:01:24.096Z,58.79
2022-10-04T02:03:59.730Z,58.95
2022-10-04T02:06:27.525Z,58.10
2022-10-04T02:08:57.575Z,58.26
2022-10-04T02:11:28.233Z,58.50
2022-10-04T02:13:56.051Z,57.55
2022-10-04T02:16:24.886Z,57.88
2022-10-04T02:18:52.712Z,57.97
2022-10-04T02:21:21.228Z,58.30
2022-10-04T02:23:49.064Z,57.64
2022-10-04T02:26:16.502Z,58.11
2022-10-04T02:28:44.216Z,58.32
2022-10-04T02:31:30.360Z,57.62
2022-10-04T02:33:59.279Z,57.26
2022-10-04T02:36:28.694Z,57.14
2022-10-04T02:39:01.024Z,57.60
2022-10-04T02:41:38.418Z,56.71
2022-10-04T02:44:20.508Z,56.69
2022-10-04T02:46:56.213Z,56.50
2022-10-04T02:49:32.040Z,56.60
2022-10-04T02:52:07.944Z,56.84
2022-10-04T02:55:03.066Z,56.67
2022-10-04T02:57:33.288Z,58.04
2022-10-04T03:00:10.855Z,57.43
2022-10-04T03:02:40.025Z,58.06
2022-10-04T03:05:11.360Z,58.18
2022-10-04T03:07:39.662Z,58.61
2022-10-04T03:10:10.052Z,58.38
2022-10-04T03:12:38.970Z,59.03
2022-10-04T03:15:09.567Z,59.42
2022-10-04T03:17:37.122Z,59.90
2022-10-04T03:20:05.707Z,58.60
2022-10-04T03:22:33.561Z,58.14
2022-10-04T03:25:01.623Z,58.46
2022-10-04T03:27:33.165Z,58.47
2022-10-04T03:30:02.034Z,58.52
2022-10-04T03:32:32.120Z,58.30
2022-10-04T03:35:03.469Z,57.94
2022-10-04T03:37:35.381Z,58.27
2022-10-04T03:40:04.118Z,58.45
2022-10-04T03:42:34.271Z,58.63
2022-10-04T03:45:11.723Z,57.77
2022-10-04T03:47:41.065Z,58.12
2022-10-04T03:50:13.648Z,57.66
2022-10-04T03:52:47.298Z,57.84
2022-10-04T03:55:15.639Z,57.48
2022-10-04T03:57:43.455Z,57.80
2022-10-04T04:00:15.310Z,57.24
2022-10-04T04:02:57.003Z,57.14
2022-10-04T04:05:29.494Z,57.05
2022-10-04T04:08:08.003Z,56.96
2022-10-04T04:10:38.363Z,57.06
2022-10-04T04:13:18.363Z,58.03
2022-10-04T04:15:46.192Z,58.38
2022-10-04T04:18:17.609Z,58.08
2022-10-04T04:20:45.767Z,58.43
2022-10-04T04:23:19.586Z,58.57
2022-10-04T04:25:48.930Z,58.02
2022-10-04T04:28:22.230Z,57.38
2022-10-04T04:30:53.312Z,57.82
2022-10-04T04:33:32.096Z,59.17
2022-10-04T04:36:07.304Z,59.52
2022-10-04T04:38:35.624Z,57.70
2022-10-04T04:41:10.910Z,58.05
2022-10-04T04:43:43.655Z,59.43
2022-10-04T04:46:27.060Z,58.16
2022-10-04T04:49:01.889Z,58.23
2022-10-04T04:51:31.620Z,58.90
2022-10-04T04:54:00.928Z,58.17
2022-10-04T04:56:29.261Z,58.77
2022-10-04T04:58:59.664Z,58.79
2022-10-04T05:01:33.146Z,59.80
2022-10-04T05:04:02.993Z,58.75
2022-10-04T05:06:31.655Z,58.64
2022-10-04T05:08:59.574Z,59.70
2022-10-04T05:11:31.098Z,59.00
2022-10-04T05:14:03.208Z,58.54
2022-10-04T05:16:50.262Z,58.76
2022-10-04T05:19:36.419Z,58.35
2022-10-04T05:22:10.119Z,58.74
2022-10-04T05:24:41.182Z,58.05
2022-10-04T05:27:18.268Z,57.85
2022-10-04T05:30:05.457Z,58.31
2022-10-04T05:32:35.628Z,58.17
2022-10-04T05:35:11.151Z,59.70
2022-10-04T05:37:54.077Z,59.00
2022-10-04T05:40:30.363Z,59.14
2022-10-04T05:42:59.494Z,60.64
2022-10-04T05:45:29.136Z,60.48
2022-10-04T05:47:58.724Z,60.91
2022-10-04T05:50:41.339Z,60.14
2022-10-04T05:53:22.768Z,59.33
2022-10-04T05:56:05.748Z,58.66
2022-10-04T05:58:58.551Z,60.97
2022-10-04T06:01:44.285Z,60.61
2022-10-04T06:04:38.586Z,60.05
2022-10-04T06:07:21.639Z,59.78
2022-10-04T06:09:56.771Z,61.93
2022-10-04T06:12:33.648Z,62.76
2022-10-04T06:15:23.130Z,61.98
2022-10-04T06:18:00.197Z,61.73
2022-10-04T06:20:46.097Z,63.94
2022-10-04T06:23:16.327Z,61.75
2022-10-04T06:25:53.018Z,63.00
2022-10-04T06:28:45.624Z,63.61
2022-10-04T06:31:24.286Z,63.53
2022-10-04T06:34:36.050Z,62.88
2022-10-04T06:37:07.315Z,64.07
2022-10-04T06:40:12.507Z,61.40
2022-10-04T06:42:58.808Z,63.38
2022-10-04T06:45:41.623Z,62.60
2022-10-04T06:48:24.630Z,63.25
2022-10-04T06:51:18.548Z,63.57
2022-10-04T06:54:21.712Z,65.05
2022-10-04T06:57:01.816Z,63.39
2022-10-04T06:59:33.086Z,62.59
2022-10-04T07:02:04.531Z,63.57
2022-10-04T07:05:07.156Z,61.96
2022-10-04T07:07:39.679Z,61.63
2022-10-04T07:10:31.033Z,62.33
2022-10-04T07:13:06.816Z,61.43
2022-10-04T07:15:45.054Z,60.98
2022-10-04T07:18:18.682Z,60.75
2022-10-04T07:20:48.994Z,60.50
2022-10-04T07:23:28.248Z,60.89
2022-10-04T07:26:00.839Z,60.56
2022-10-04T07:28:51.329Z,61.57
2022-10-04T07:31:23.221Z,62.52
2022-10-04T07:33:55.241Z,61.54
2022-10-04T07:36:32.391Z,61.56
2022-10-04T07:39:05.545Z,61.66
2022-10-04T07:41:36.379Z,60.86
2022-10-04T07:44:12.123Z,60.48
2022-10-04T07:46:42.834Z,60.95
2022-10-04T07:49:18.201Z,62.68
2022-10-04T07:51:51.979Z,61.83
2022-10-04T07:54:28.265Z,60.71
2022-10-04T07:57:00.299Z,61.59
2022-10-04T07:59:49.456Z,61.13
2022-10-04T08:02:37.685Z,60.93
2022-10-04T08:05:36.585Z,60.82
2022-10-04T08:08:25.900Z,60.91
2022-10-04T08:11:08.614Z,59.44
2022-10-04T08:13:50.359Z,61.43
2022-10-04T08:17:05.591Z,60.89
2022-10-04T08:19:50.200Z,59.26
2022-10-04T08:22:30.134Z,58.67
2022-10-04T08:25:11.917Z,58.81
2022-10-04T08:28:18.985Z,57.58
2022-10-04T08:31:12.727Z,56.69
2022-10-04T08:34:22.834Z,57.96
2022-10-04T08:37:24.215Z,57.00
2022-10-04T08:40:15.082Z,56.41
2022-10-04T08:42:51.224Z,56.12
2022-10-04T08:45:44.810Z,55.28
2022-10-04T08:48:30.760Z,55.98
2022-10-04T08:51:34.299Z,57.19
2022-10-04T08:54:20.306Z,54.77
2022-10-04T08:57:06.615Z,56.34
2022-10-04T08:59:57.940Z,54.92
2022-10-04T09:02:39.072Z,55.56
2022-10-04T09:05:13.678Z,55.51
2022-10-04T09:08:06.102Z,53.71
2022-10-04T09:10:57.351Z,53.56
2022-10-04T09:13:34.129Z,53.44
2022-10-04T09:16:30.166Z,53.44
2022-10-04T09:19:21.416Z,53.56
2022-10-04T09:22:12.661Z,53.42
2022-10-04T09:25:21.225Z,52.05
2022-10-04T09:27:55.755Z,53.25
2022-10-04T09:30:34.933Z,53.75
2022-10-04T09:33:11.235Z,53.56
2022-10-04T09:36:03.891Z,54.48
2022-10-04T09:39:18.331Z,53.87
2022-10-04T09:41:53.013Z,53.64
2022-10-04T09:44:46.167Z,54.09
2022-10-04T09:47:22.194Z,53.92
2022-10-04T09:50:07.205Z,54.64
2022-10-04T09:52:45.133Z,54.79
2022-10-04T09:55:34.053Z,54.70
2022-10-04T09:58:11.996Z,54.44
2022-10-04T10:00:47.700Z,54.75
2022-10-04T10:03:35.182Z,55.26
2022-10-04T10:06:28.881Z,52.43
2022-10-04T10:08:59.489Z,55.18
2022-10-04T10:11:58.632Z,54.37
2022-10-04T10:14:51.327Z,53.87
2022-10-04T10:17:24.700Z,54.04
2022-10-04T10:20:16.763Z,53.87
2022-10-04T10:23:16.531Z,51.58
2022-10-04T10:26:24.044Z,52.33
2022-10-04T10:29:11.642Z,53.03
2022-10-04T10:31:48.180Z,51.30
2022-10-04T10:34:38.793Z,50.40
2022-10-04T10:37:22.422Z,51.28
2022-10-04T10:40:27.585Z,52.66
2022-10-04T10:43:21.744Z,51.86
2022-10-04T10:46:20.229Z,50.96
2022-10-04T10:48:57.720Z,49.88
2022-10-04T10:51:43.633Z,50.65
2022-10-04T10:54:49.504Z,51.18
2022-10-04T10:57:47.977Z,51.69
2022-10-04T11:00:21.380Z,51.42
2022-10-04T11:03:12.262Z,50.36
2022-10-04T11:06:14.633Z,49.58
2022-10-04T11:09:19.870Z,52.42
2022-10-04T11:11:57.112Z,52.52
2022-10-04T11:14:38.739Z,53.87
2022-10-04T11:17:27.891Z,52.96
2022-10-04T11:20:24.841Z,51.77
2022-10-04T11:23:11.034Z,52.20
2022-10-04T11:26:00.687Z,51.67
2022-10-04T11:28:58.765Z,51.87
2022-10-04T11:31:54.932Z,53.18
2022-10-04T11:34:41.431Z,53.51
2022-10-04T11:37:23.381Z,53.40
2022-10-04T11:40:19.165Z,53.44
2022-10-04T11:43:04.754Z,52.80
2022-10-04T11:45:44.657Z,53.93
2022-10-04T11:48:33.285Z,51.67
2022-10-04T11:51:22.698Z,50.67
2022-10-04T11:53:52.597Z,52.01
2022-10-04T11:56:49.866Z,51.51
2022-10-04T11:59:32.649Z,52.41
2022-10-04T12:02:34.030Z,52.33
2022-10-04T12:05:33.153Z,50.73
2022-10-04T12:08:22.918Z,49.80
2022-10-04T12:11:21.046Z,50.48
2022-10-04T12:14:10.550Z,50.83
2022-10-04T12:17:10.266Z,52.84
2022-10-04T12:20:00.838Z,51.58
2022-10-04T12:22:50.014Z,52.82
2022-10-04T12:25:38.942Z,52.03
2022-10-04T12:28:19.882Z,52.66
2022-10-04T12:30:56.147Z,52.40
2022-10-04T12:33:37.362Z,52.45
2022-10-04T12:36:08.405Z,53.85
2022-10-04T12:38:45.279Z,55.96
2022-10-04T12:41:41.703Z,54.64
2022-10-04T12:44:21.471Z,53.49
2022-10-04T12:47:05.920Z,54.05
2022-10-04T12:50:02.792Z,55.21
2022-10-04T12:52:58.827Z,55.60
2022-10-04T12:55:44.674Z,55.63
2022-10-04T12:58:35.327Z,56.73
2022-10-04T13:01:22.609Z,55.03
2022-10-04T13:04:34.135Z,55.46
2022-10-04T13:07:39.554Z,54.75
2022-10-04T13:10:25.262Z,53.33
2022-10-04T13:13:14.783Z,53.09
2022-10-04T13:18:53.561Z,51.58
2022-10-04T13:21:53.210Z,51.04
2022-10-04T13:24:55.218Z,49.25
2022-10-04T13:27:38.438Z,49.12
2022-10-04T13:30:13.452Z,49.69
2022-10-04T13:32:48.072Z,50.12
2022-10-04T13:35:25.120Z,50.89
2022-10-04T13:37:58.494Z,49.47
2022-10-04T13:40:45.148Z,48.79
2022-10-04T13:43:34.393Z,50.44
2022-10-04T13:46:11.787Z,50.85
2022-10-04T13:48:56.435Z,50.86
2022-10-04T13:51:42.522Z,49.74
2022-10-04T13:54:46.247Z,48.84
2022-10-04T13:57:31.667Z,49.09
2022-10-04T14:00:15.180Z,48.13
2022-10-04T14:02:52.096Z,48.71
2022-10-04T14:05:57.163Z,48.37
2022-10-04T14:08:56.689Z,49.51
2022-10-04T14:11:44.063Z,48.44
2022-10-04T14:14:30.753Z,49.52
2022-10-04T14:17:25.859Z,48.78
2022-10-04T14:20:02.732Z,48.34
2022-10-04T14:22:44.357Z,48.17
2022-10-04T14:25:49.369Z,46.91
2022-10-04T14:28:38.306Z,47.87
2022-10-04T14:31:59.730Z,47.86
2022-10-04T14:34:31.139Z,46.56
2022-10-04T14:36:58.779Z,48.37
2022-10-04T14:39:36.999Z,48.47
2022-10-04T14:42:18.644Z,48.13
2022-10-04T14:45:11.511Z,48.85
2022-10-04T14:48:02.415Z,48.11
2022-10-04T14:50:36.092Z,47.68
2022-10-04T14:53:25.145Z,47.92
2022-10-04T14:56:06.393Z,47.27
2022-10-04T14:59:02.546Z,46.22
2022-10-04T15:01:30.202Z,47.31
2022-10-04T15:04:14.440Z,47.99
2022-10-04T15:06:49.427Z,45.61
2022-10-04T15:09:20.171Z,47.38
2022-10-04T15:12:25.542Z,47.51
2022-10-04T15:15:00.879Z,46.91
2022-10-04T15:17:32.895Z,47.85
2022-10-04T15:20:31.430Z,47.38
2022-10-04T15:23:01.714Z,46.48
2022-10-04T15:25:48.417Z,47.16
2022-10-04T15:28:44.019Z,46.76
2022-10-04T15:31:31.459Z,47.06
2022-10-04T15:34:07.615Z,47.00
2022-10-04T15:36:57.165Z,46.59
2022-10-04T15:39:50.950Z,47.33
2022-10-04T15:42:33.356Z,46.95
2022-10-04T15:45:19.070Z,46.12
2022-10-04T15:47:52.639Z,45.74
2022-10-04T15:50:55.545Z,46.16
2022-10-04T15:53:55.837Z,45.72
2022-10-04T15:56:45.453Z,45.73
2022-10-04T15:59:37.021Z,46.22
2022-10-04T16:02:23.221Z,45.98
2022-10-04T16:05:08.970Z,45.91
2022-10-04T16:07:55.121Z,46.49
2022-10-04T16:11:04.149Z,46.42
2022-10-04T16:13:40.640Z,46.24
2022-10-04T16:16:25.855Z,46.53
2022-10-04T16:19:11.508Z,46.99
2022-10-04T16:22:09.455Z,47.07
2022-10-04T16:24:44.361Z,47.22
2022-10-04T16:27:20.505Z,47.61
2022-10-04T16:30:28.923Z,47.41
2022-10-04T16:33:06.505Z,47.55
2022-10-04T16:36:10.470Z,47.84
2022-10-04T16:39:07.308Z,48.31
2022-10-04T16:41:44.230Z,48.26
2022-10-04T16:44:53.825Z,48.49
2022-10-04T16:47:34.885Z,48.64
2022-10-04T16:50:04.993Z,48.64
2022-10-04T16:53:14.529Z,48.77
2022-10-04T16:55:57.197Z,48.94
2022-10-04T16:58:27.720Z,49.17
2022-10-04T17:01:23.887Z,50.31
2022-10-04T17:03:59.904Z,50.56
2022-10-04T17:06:48.609Z,50.32
2022-10-04T17:09:41.936Z,50.19
2022-10-04T17:12:24.779Z,50.53
2022-10-04T17:14:55.046Z,50.88
2022-10-04T17:17:34.927Z,50.89
2022-10-04T17:20:10.900Z,51.13
2022-10-04T17:23:06.629Z,51.16
2022-10-04T17:25:44.732Z,51.09
2022-10-04T17:28:20.715Z,51.42
2022-10-04T17:30:58.357Z,52.12
2022-10-04T17:33:43.521Z,51.95
2022-10-04T17:36:33.684Z,51.76
2022-10-04T17:39:19.914Z,51.83
2022-10-04T17:42:08.318Z,52.08
2022-10-04T17:45:14.600Z,52.15
2022-10-04T17:48:05.509Z,52.16
2022-10-04T17:50:58.843Z,52.33
2022-10-04T17:53:47.460Z,52.16
2022-10-04T17:56:26.139Z,52.06
2022-10-04T17:58:57.671Z,52.21
2022-10-04T18:01:45.930Z,52.22
2022-10-04T18:04:19.716Z,52.08
2022-10-04T18:06:55.897Z,52.19
2022-10-04T18:09:44.137Z,53.03
2022-10-04T18:12:15.555Z,52.83
2022-10-04T18:14:58.550Z,53.09
2022-10-04T18:17:39.007Z,52.85
2022-10-04T18:20:32.833Z,53.68
2022-10-04T18:23:12.310Z,53.47
2022-10-04T18:25:41.363Z,53.63
2022-10-04T18:28:08.889Z,53.86
2022-10-04T18:30:45.810Z,53.22
2022-10-04T18:33:15.635Z,53.02
2022-10-04T18:35:55.136Z,53.21
2022-10-04T18:38:27.850Z,53.43
2022-10-04T18:40:58.374Z,53.49
2022-10-04T18:43:32.441Z,53.48
2022-10-04T18:46:10.540Z,53.58
2022-10-04T18:48:59.903Z,53.54
2022-10-04T18:51:30.192Z,53.73
2022-10-04T18:54:16.514Z,53.62
2022-10-04T18:56:54.372Z,53.45
2022-10-04T19:00:13.213Z,53.72
2022-10-04T19:03:28.590Z,53.84
2022-10-04T19:06:02.808Z,53.99
2022-10-04T19:09:13.898Z,54.55
2022-10-04T19:12:04.790Z,54.37
2022-10-04T19:15:01.681Z,54.04
2022-10-04T19:17:46.582Z,53.76
2022-10-04T19:20:23.793Z,53.85
2022-10-04T19:23:19.600Z,53.57
2022-10-04T19:26:31.582Z,53.81
2022-10-04T19:29:37.119Z,53.92
2022-10-04T19:32:09.012Z,53.83
2022-10-04T19:35:15.741Z,54.04
2022-10-04T19:38:04.590Z,53.84
2022-10-04T19:40:45.079Z,53.73
2022-10-04T19:43:42.289Z,54.27
2022-10-04T19:46:19.860Z,54.59
2022-10-04T19:48:49.926Z,54.27
2022-10-04T19:51:26.934Z,54.42
2022-10-04T19:53:59.447Z,54.26
2022-10-04T19:56:31.816Z,54.72
2022-10-04T19:59:10.390Z,54.63
2022-10-04T20:01:38.804Z,54.41
2022-10-04T20:04:33.800Z,54.26
2022-10-04T20:07:03.776Z,54.24
2022-10-04T20:09:37.329Z,54.53
2022-10-04T20:12:05.520Z,53.95
2022-10-04T20:14:33.219Z,53.69
2022-10-04T20:17:00.877Z,53.78
2022-10-04T20:19:28.284Z,53.64
2022-10-04T20:22:08.206Z,53.68
2022-10-04T20:24:39.210Z,54.04
2022-10-04T20:27:09.203Z,54.06
2022-10-04T20:29:36.530Z,53.84
2022-10-04T20:32:06.080Z,54.19
2022-10-04T20:34:48.038Z,55.13
2022-10-04T20:37:18.988Z,55.94
2022-10-04T20:39:46.651Z,55.65
2022-10-04T20:42:27.166Z,55.49
2022-10-04T20:45:03.762Z,56.83
2022-10-04T20:47:40.745Z,57.62
2022-10-04T20:50:29.795Z,56.23
2022-10-04T20:53:00.289Z,55.79
2022-10-04T20:55:35.749Z,56.13
2022-10-04T20:58:24.871Z,55.76
2022-10-04T21:00:54.974Z,55.98
2022-10-04T21:03:23.119Z,55.65
2022-10-04T21:06:06.611Z,55.57
2022-10-04T21:08:35.269Z,55.67
2022-10-04T21:11:07.116Z,55.69
2022-10-04T21:13:51.993Z,55.65
2022-10-04T21:16:39.084Z,55.64
2022-10-04T21:19:38.872Z,55.57
2022-10-04T21:22:08.121Z,54.86
2022-10-04T21:24:49.040Z,54.84
2022-10-04T21:27:35.881Z,55.48
2022-10-04T21:30:07.399Z,56.78
2022-10-04T21:32:36.228Z,56.79
2022-10-04T21:35:05.209Z,56.06
2022-10-04T21:37:33.137Z,55.39
2022-10-04T21:40:01.042Z,55.10
2022-10-04T21:42:28.829Z,55.60
2022-10-04T21:44:56.369Z,55.98
2022-10-04T21:47:23.895Z,56.23
2022-10-04T21:49:52.145Z,55.22
2022-10-04T21:52:19.622Z,55.03
2022-10-04T21:54:47.129Z,54.48
2022-10-04T21:57:14.875Z,54.22
2022-10-04T21:59:42.309Z,54.36
2022-10-04T22:02:09.770Z,54.27
2022-10-04T22:04:38.226Z,54.87
2022-10-04T22:07:05.783Z,54.63
2022-10-04T22:09:34.019Z,55.00
2022-10-04T22:12:01.745Z,55.46
2022-10-04T22:14:29.227Z,55.31
2022-10-04T22:16:56.718Z,55.42
2022-10-04T22:19:24.421Z,55.86
2022-10-04T22:21:51.884Z,56.13
2022-10-04T22:24:20.570Z,56.42
2022-10-04T22:26:48.945Z,55.46
2022-10-04T22:29:17.982Z,55.23
2022-10-04T22:31:50.112Z,54.68
2022-10-04T22:34:20.343Z,54.77
2022-10-04T22:36:49.222Z,56.08
2022-10-04T22:39:19.000Z,56.28
2022-10-04T22:41:54.344Z,56.46
2022-10-04T22:44:38.957Z,56.17
2022-10-04T22:47:11.350Z,56.40
2022-10-04T22:49:41.563Z,56.87
2022-10-04T22:52:18.848Z,57.06
2022-10-04T22:54:49.599Z,57.25
2022-10-04T22:57:18.686Z,57.18
2022-10-04T22:59:50.995Z,56.58
2022-10-04T23:02:24.194Z,56.44
2022-10-04T23:04:54.295Z,56.02
2022-10-04T23:07:22.091Z,55.26
2022-10-04T23:09:49.720Z,55.45
2022-10-04T23:12:17.242Z,55.24
2022-10-04T23:14:44.974Z,54.98
2022-10-04T23:17:26.483Z,54.93
2022-10-04T23:20:00.030Z,55.76
2022-10-04T23:22:29.487Z,55.73
2022-10-04T23:24:57.681Z,55.92
2022-10-04T23:27:25.266Z,55.42
2022-10-04T23:30:02.621Z,54.93
2022-10-04T23:32:31.654Z,55.45
2022-10-04T23:34:59.841Z,54.73
2022-10-04T23:37:31.150Z,54.37
2022-10-04T23:39:59.208Z,55.02
2022-10-04T23:42:30.286Z,54.91
2022-10-04T23:45:01.772Z,55.04
2022-10-04T23:47:34.862Z,55.28
2022-10-04T23:50:08.009Z,55.03
2022-10-04T23:52:37.854Z,55.85
2022-10-04T23:55:35.361Z,55.21
2022-10-04T23:58:10.949Z,54.36
